sensor_id;sensor_type;location;lat;lon;timestamp;temperature;humidity
65692;DHT22;52411;52.716;6.696;2023-02-28T00:00:23;3.70;99.90
65692;DHT22;52411;52.716;6.696;2023-02-28T00:02:49;3.60;99.90
65692;DHT22;52411;52.716;6.696;2023-02-28T00:05:17;3.70;99.90
65692;DHT22;52411;52.716;6.696;2023-02-28T00:07:43;3.70;99.90
65692;DHT22;52411;52.716;6.696;2023-02-28T00:10:11;3.70;99.90
65692;DHT22;52411;52.716;6.696;2023-02-28T00:12:38;3.70;99.90
65692;DHT22;52411;52.716;6.696;2023-02-28T00:15:10;3.70;99.90
65692;DHT22;52411;52.716;6.696;2023-02-28T00:17:36;3.70;99.90
65692;DHT22;52411;52.716;6.696;2023-02-28T00:20:02;3.70;99.90
65692;DHT22;52411;52.716;6.696;2023-02-28T00:22:30;3.70;99.90
65692;DHT22;52411;52.716;6.696;2023-02-28T00:24:55;3.80;99.90
65692;DHT22;52411;52.716;6.696;2023-02-28T00:27:21;3.80;99.90
65692;DHT22;52411;52.716;6.696;2023-02-28T00:29:47;3.80;99.90
65692;DHT22;52411;52.716;6.696;2023-02-28T00:32:13;3.80;99.90
65692;DHT22;52411;52.716;6.696;2023-02-28T00:34:39;3.80;99.90
65692;DHT22;52411;52.716;6.696;2023-02-28T00:37:06;3.80;99.90
65692;DHT22;52411;52.716;6.696;2023-02-28T00:39:33;3.80;99.90
65692;DHT22;52411;52.716;6.696;2023-02-28T00:41:59;3.70;99.90
65692;DHT22;52411;52.716;6.696;2023-02-28T00:44:25;3.80;99.90
65692;DHT22;52411;52.716;6.696;2023-02-28T00:46:51;3.80;99.90
65692;DHT22;52411;52.716;6.696;2023-02-28T00:49:17;3.80;99.90
65692;DHT22;52411;52.716;6.696;2023-02-28T00:51:43;3.80;99.90
65692;DHT22;52411;52.716;6.696;2023-02-28T00:54:08;3.70;99.90
65692;DHT22;52411;52.716;6.696;2023-02-28T00:56:34;3.80;99.90
65692;DHT22;52411;52.716;6.696;2023-02-28T00:58:59;3.80;99.90
65692;DHT22;52411;52.716;6.696;2023-02-28T01:01:25;3.80;99.90
65692;DHT22;52411;52.716;6.696;2023-02-28T01:03:50;3.80;99.90
65692;DHT22;52411;52.716;6.696;2023-02-28T01:06:16;3.90;99.90
65692;DHT22;52411;52.716;6.696;2023-02-28T01:08:42;3.80;99.90
65692;DHT22;52411;52.716;6.696;2023-02-28T01:11:12;3.80;99.90
65692;DHT22;52411;52.716;6.696;2023-02-28T01:13:38;3.80;99.90
65692;DHT22;52411;52.716;6.696;2023-02-28T01:16:04;3.80;99.90
65692;DHT22;52411;52.716;6.696;2023-02-28T01:18:30;3.80;99.90
65692;DHT22;52411;52.716;6.696;2023-02-28T01:20:56;3.80;99.90
65692;DHT22;52411;52.716;6.696;2023-02-28T01:23:23;3.80;99.90
65692;DHT22;52411;52.716;6.696;2023-02-28T01:25:50;3.80;99.90
65692;DHT22;52411;52.716;6.696;2023-02-28T01:28:15;3.80;99.90
65692;DHT22;52411;52.716;6.696;2023-02-28T01:30:41;3.80;99.90
65692;DHT22;52411;52.716;6.696;2023-02-28T01:33:07;3.80;99.90
65692;DHT22;52411;52.716;6.696;2023-02-28T01:35:34;3.90;99.90
65692;DHT22;52411;52.716;6.696;2023-02-28T01:38:00;3.90;99.90
65692;DHT22;52411;52.716;6.696;2023-02-28T01:40:26;3.80;99.90
65692;DHT22;52411;52.716;6.696;2023-02-28T01:42:51;3.80;99.90
65692;DHT22;52411;52.716;6.696;2023-02-28T01:45:28;3.80;99.90
65692;DHT22;52411;52.716;6.696;2023-02-28T01:47:58;3.80;99.90
65692;DHT22;52411;52.716;6.696;2023-02-28T01:50:27;3.80;99.90
65692;DHT22;52411;52.716;6.696;2023-02-28T01:52:56;3.70;99.90
65692;DHT22;52411;52.716;6.696;2023-02-28T01:55:24;3.80;99.90
65692;DHT22;52411;52.716;6.696;2023-02-28T01:57:56;3.70;99.90
65692;DHT22;52411;52.716;6.696;2023-02-28T02:00:25;3.80;99.90
65692;DHT22;52411;52.716;6.696;2023-02-28T02:02:57;3.80;99.90
65692;DHT22;52411;52.716;6.696;2023-02-28T02:05:29;3.80;99.90
65692;DHT22;52411;52.716;6.696;2023-02-28T02:07:58;3.80;99.90
65692;DHT22;52411;52.716;6.696;2023-02-28T02:10:36;3.90;99.90
65692;DHT22;52411;52.716;6.696;2023-02-28T02:19:01;3.80;99.90
65692;DHT22;52411;52.716;6.696;2023-02-28T02:27:18;3.70;99.90
65692;DHT22;52411;52.716;6.696;2023-02-28T02:35:53;3.70;99.90
65692;DHT22;52411;52.716;6.696;2023-02-28T02:38:46;3.70;99.90
65692;DHT22;52411;52.716;6.696;2023-02-28T02:41:15;3.70;99.90
65692;DHT22;52411;52.716;6.696;2023-02-28T02:46:21;3.70;99.90
65692;DHT22;52411;52.716;6.696;2023-02-28T02:48:50;3.60;99.90
65692;DHT22;52411;52.716;6.696;2023-02-28T02:51:20;3.70;99.90
65692;DHT22;52411;52.716;6.696;2023-02-28T02:53:51;3.70;99.90
65692;DHT22;52411;52.716;6.696;2023-02-28T02:56:20;3.60;99.90
65692;DHT22;52411;52.716;6.696;2023-02-28T02:58:50;3.60;99.90
65692;DHT22;52411;52.716;6.696;2023-02-28T03:01:21;3.60;99.90
65692;DHT22;52411;52.716;6.696;2023-02-28T03:03:55;3.60;99.90
65692;DHT22;52411;52.716;6.696;2023-02-28T03:06:21;3.60;99.90
65692;DHT22;52411;52.716;6.696;2023-02-28T03:08:46;3.60;99.90
65692;DHT22;52411;52.716;6.696;2023-02-28T03:11:13;3.60;99.90
65692;DHT22;52411;52.716;6.696;2023-02-28T03:25:12;3.60;99.90
65692;DHT22;52411;52.716;6.696;2023-02-28T03:27:56;3.60;99.90
65692;DHT22;52411;52.716;6.696;2023-02-28T03:35:32;3.60;99.90
65692;DHT22;52411;52.716;6.696;2023-02-28T03:38:22;3.50;99.90
65692;DHT22;52411;52.716;6.696;2023-02-28T03:41:15;3.60;99.90
65692;DHT22;52411;52.716;6.696;2023-02-28T03:43:47;3.50;99.90
65692;DHT22;52411;52.716;6.696;2023-02-28T03:46:18;3.50;99.90
65692;DHT22;52411;52.716;6.696;2023-02-28T03:51:20;3.50;99.90
65692;DHT22;52411;52.716;6.696;2023-02-28T03:53:52;3.50;99.90
65692;DHT22;52411;52.716;6.696;2023-02-28T03:56:33;3.60;99.90
65692;DHT22;52411;52.716;6.696;2023-02-28T03:59:12;3.60;99.90
65692;DHT22;52411;52.716;6.696;2023-02-28T04:01:44;3.50;99.90
65692;DHT22;52411;52.716;6.696;2023-02-28T04:04:11;3.50;99.90
65692;DHT22;52411;52.716;6.696;2023-02-28T04:06:38;3.50;99.90
65692;DHT22;52411;52.716;6.696;2023-02-28T04:09:06;3.50;99.90
65692;DHT22;52411;52.716;6.696;2023-02-28T04:11:37;3.50;99.90
65692;DHT22;52411;52.716;6.696;2023-02-28T04:14:04;3.50;99.90
65692;DHT22;52411;52.716;6.696;2023-02-28T04:16:32;3.50;99.90
65692;DHT22;52411;52.716;6.696;2023-02-28T04:18:58;3.50;99.90
65692;DHT22;52411;52.716;6.696;2023-02-28T04:21:33;3.50;99.90
65692;DHT22;52411;52.716;6.696;2023-02-28T04:23:59;3.50;99.90
65692;DHT22;52411;52.716;6.696;2023-02-28T04:26:36;3.50;99.90
65692;DHT22;52411;52.716;6.696;2023-02-28T04:29:04;3.50;99.90
65692;DHT22;52411;52.716;6.696;2023-02-28T04:31:30;3.50;99.90
65692;DHT22;52411;52.716;6.696;2023-02-28T04:33:56;3.50;99.90
65692;DHT22;52411;52.716;6.696;2023-02-28T04:36:22;3.50;99.90
65692;DHT22;52411;52.716;6.696;2023-02-28T04:38:48;3.40;99.90
65692;DHT22;52411;52.716;6.696;2023-02-28T04:41:14;3.40;99.90
65692;DHT22;52411;52.716;6.696;2023-02-28T04:43:40;3.40;99.90
65692;DHT22;52411;52.716;6.696;2023-02-28T04:46:06;3.50;99.90
65692;DHT22;52411;52.716;6.696;2023-02-28T04:48:34;3.40;99.90
65692;DHT22;52411;52.716;6.696;2023-02-28T04:51:05;3.40;99.90
65692;DHT22;52411;52.716;6.696;2023-02-28T04:53:31;3.40;99.90
65692;DHT22;52411;52.716;6.696;2023-02-28T04:55:58;3.40;99.90
65692;DHT22;52411;52.716;6.696;2023-02-28T04:58:23;3.40;99.90
65692;DHT22;52411;52.716;6.696;2023-02-28T05:00:50;3.30;99.90
65692;DHT22;52411;52.716;6.696;2023-02-28T05:03:16;3.30;99.90
65692;DHT22;52411;52.716;6.696;2023-02-28T05:05:41;3.30;99.90
65692;DHT22;52411;52.716;6.696;2023-02-28T05:08:07;3.40;99.90
65692;DHT22;52411;52.716;6.696;2023-02-28T05:10:33;3.30;99.90
65692;DHT22;52411;52.716;6.696;2023-02-28T05:12:58;3.30;99.90
65692;DHT22;52411;52.716;6.696;2023-02-28T05:15:24;3.30;99.90
65692;DHT22;52411;52.716;6.696;2023-02-28T05:17:50;3.30;99.90
65692;DHT22;52411;52.716;6.696;2023-02-28T05:20:15;3.20;99.90
65692;DHT22;52411;52.716;6.696;2023-02-28T05:22:42;3.20;99.90
65692;DHT22;52411;52.716;6.696;2023-02-28T05:25:11;3.30;99.90
65692;DHT22;52411;52.716;6.696;2023-02-28T05:27:38;3.20;99.90
65692;DHT22;52411;52.716;6.696;2023-02-28T05:30:05;3.20;99.90
65692;DHT22;52411;52.716;6.696;2023-02-28T05:32:31;3.30;99.90
65692;DHT22;52411;52.716;6.696;2023-02-28T05:34:57;3.30;99.90
65692;DHT22;52411;52.716;6.696;2023-02-28T05:37:22;3.30;99.90
65692;DHT22;52411;52.716;6.696;2023-02-28T05:39:48;3.30;99.90
65692;DHT22;52411;52.716;6.696;2023-02-28T05:42:13;3.30;99.90
65692;DHT22;52411;52.716;6.696;2023-02-28T05:44:39;3.30;99.90
65692;DHT22;52411;52.716;6.696;2023-02-28T05:47:04;3.30;99.90
65692;DHT22;52411;52.716;6.696;2023-02-28T05:49:30;3.30;99.90
65692;DHT22;52411;52.716;6.696;2023-02-28T05:51:56;3.30;99.90
65692;DHT22;52411;52.716;6.696;2023-02-28T05:54:21;3.30;99.90
65692;DHT22;52411;52.716;6.696;2023-02-28T05:56:47;3.30;99.90
65692;DHT22;52411;52.716;6.696;2023-02-28T05:59:13;3.30;99.90
65692;DHT22;52411;52.716;6.696;2023-02-28T06:01:41;3.30;99.90
65692;DHT22;52411;52.716;6.696;2023-02-28T06:04:09;3.30;99.90
65692;DHT22;52411;52.716;6.696;2023-02-28T06:06:36;3.30;99.90
65692;DHT22;52411;52.716;6.696;2023-02-28T06:09:03;3.30;99.90
65692;DHT22;52411;52.716;6.696;2023-02-28T06:11:29;3.30;99.90
65692;DHT22;52411;52.716;6.696;2023-02-28T06:13:56;3.40;99.90
65692;DHT22;52411;52.716;6.696;2023-02-28T06:16:23;3.40;99.90
65692;DHT22;52411;52.716;6.696;2023-02-28T06:18:49;3.30;99.90
65692;DHT22;52411;52.716;6.696;2023-02-28T06:21:14;3.30;99.90
65692;DHT22;52411;52.716;6.696;2023-02-28T06:23:40;3.30;99.90
65692;DHT22;52411;52.716;6.696;2023-02-28T06:26:06;3.20;99.90
65692;DHT22;52411;52.716;6.696;2023-02-28T06:28:31;3.20;99.90
65692;DHT22;52411;52.716;6.696;2023-02-28T06:30:57;3.30;99.90
65692;DHT22;52411;52.716;6.696;2023-02-28T06:33:23;3.30;99.90
65692;DHT22;52411;52.716;6.696;2023-02-28T06:35:52;3.20;99.90
65692;DHT22;52411;52.716;6.696;2023-02-28T06:38:18;3.20;99.90
65692;DHT22;52411;52.716;6.696;2023-02-28T06:40:44;3.20;99.90
65692;DHT22;52411;52.716;6.696;2023-02-28T06:43:10;3.20;99.90
65692;DHT22;52411;52.716;6.696;2023-02-28T06:45:42;3.20;99.90
65692;DHT22;52411;52.716;6.696;2023-02-28T06:48:08;3.30;99.90
65692;DHT22;52411;52.716;6.696;2023-02-28T06:50:34;3.30;99.90
65692;DHT22;52411;52.716;6.696;2023-02-28T06:53:00;3.30;99.90
65692;DHT22;52411;52.716;6.696;2023-02-28T06:55:25;3.30;99.90
65692;DHT22;52411;52.716;6.696;2023-02-28T06:57:51;3.40;99.90
65692;DHT22;52411;52.716;6.696;2023-02-28T07:00:17;3.40;99.90
65692;DHT22;52411;52.716;6.696;2023-02-28T07:02:42;3.40;99.90
65692;DHT22;52411;52.716;6.696;2023-02-28T07:05:08;3.40;99.90
65692;DHT22;52411;52.716;6.696;2023-02-28T07:07:34;3.40;99.90
65692;DHT22;52411;52.716;6.696;2023-02-28T07:10:01;3.50;99.90
65692;DHT22;52411;52.716;6.696;2023-02-28T07:12:27;3.50;99.90
65692;DHT22;52411;52.716;6.696;2023-02-28T07:14:53;3.60;99.90
65692;DHT22;52411;52.716;6.696;2023-02-28T07:17:19;3.60;99.90
65692;DHT22;52411;52.716;6.696;2023-02-28T07:19:45;3.70;99.90
65692;DHT22;52411;52.716;6.696;2023-02-28T07:22:10;3.80;99.90
65692;DHT22;52411;52.716;6.696;2023-02-28T07:24:36;3.80;99.90
65692;DHT22;52411;52.716;6.696;2023-02-28T07:27:02;3.90;99.90
65692;DHT22;52411;52.716;6.696;2023-02-28T07:29:28;4.00;99.90
65692;DHT22;52411;52.716;6.696;2023-02-28T07:31:54;4.10;99.90
65692;DHT22;52411;52.716;6.696;2023-02-28T07:34:20;4.10;99.90
65692;DHT22;52411;52.716;6.696;2023-02-28T07:36:46;4.20;99.90
65692;DHT22;52411;52.716;6.696;2023-02-28T07:39:11;4.20;99.90
65692;DHT22;52411;52.716;6.696;2023-02-28T07:41:37;4.20;99.90
65692;DHT22;52411;52.716;6.696;2023-02-28T07:44:09;4.20;99.90
65692;DHT22;52411;52.716;6.696;2023-02-28T07:46:35;4.20;99.90
65692;DHT22;52411;52.716;6.696;2023-02-28T07:49:01;4.30;99.90
65692;DHT22;52411;52.716;6.696;2023-02-28T07:51:29;4.40;99.90
65692;DHT22;52411;52.716;6.696;2023-02-28T07:53:54;4.40;99.90
65692;DHT22;52411;52.716;6.696;2023-02-28T07:56:20;4.50;99.90
65692;DHT22;52411;52.716;6.696;2023-02-28T07:58:46;4.40;99.90
65692;DHT22;52411;52.716;6.696;2023-02-28T08:01:12;4.40;99.90
65692;DHT22;52411;52.716;6.696;2023-02-28T08:03:38;4.20;99.90
65692;DHT22;52411;52.716;6.696;2023-02-28T08:06:13;4.10;99.90
65692;DHT22;52411;52.716;6.696;2023-02-28T08:08:39;4.00;99.90
65692;DHT22;52411;52.716;6.696;2023-02-28T08:11:05;3.90;99.90
65692;DHT22;52411;52.716;6.696;2023-02-28T08:13:31;3.80;99.90
65692;DHT22;52411;52.716;6.696;2023-02-28T08:15:56;3.80;99.90
65692;DHT22;52411;52.716;6.696;2023-02-28T08:18:22;3.80;99.90
65692;DHT22;52411;52.716;6.696;2023-02-28T08:20:49;3.70;99.90
65692;DHT22;52411;52.716;6.696;2023-02-28T08:23:14;3.80;99.90
65692;DHT22;52411;52.716;6.696;2023-02-28T08:25:40;3.80;99.90
65692;DHT22;52411;52.716;6.696;2023-02-28T08:28:06;3.90;99.90
65692;DHT22;52411;52.716;6.696;2023-02-28T08:30:31;3.90;99.90
65692;DHT22;52411;52.716;6.696;2023-02-28T08:33:00;3.90;99.90
65692;DHT22;52411;52.716;6.696;2023-02-28T08:35:27;4.00;99.90
65692;DHT22;52411;52.716;6.696;2023-02-28T08:37:52;4.00;99.90
65692;DHT22;52411;52.716;6.696;2023-02-28T08:40:18;4.00;99.90
65692;DHT22;52411;52.716;6.696;2023-02-28T08:42:45;4.00;99.90
65692;DHT22;52411;52.716;6.696;2023-02-28T08:45:11;4.10;99.90
65692;DHT22;52411;52.716;6.696;2023-02-28T08:47:37;4.10;99.90
65692;DHT22;52411;52.716;6.696;2023-02-28T08:50:04;4.00;99.90
65692;DHT22;52411;52.716;6.696;2023-02-28T08:52:30;4.00;99.90
65692;DHT22;52411;52.716;6.696;2023-02-28T08:54:55;3.90;99.90
65692;DHT22;52411;52.716;6.696;2023-02-28T08:57:21;4.00;99.90
65692;DHT22;52411;52.716;6.696;2023-02-28T08:59:46;4.00;99.90
65692;DHT22;52411;52.716;6.696;2023-02-28T09:02:13;4.10;99.90
65692;DHT22;52411;52.716;6.696;2023-02-28T09:04:40;4.10;99.90
65692;DHT22;52411;52.716;6.696;2023-02-28T09:07:06;4.10;99.90
65692;DHT22;52411;52.716;6.696;2023-02-28T09:09:31;4.20;99.90
65692;DHT22;52411;52.716;6.696;2023-02-28T09:11:57;4.20;99.90
65692;DHT22;52411;52.716;6.696;2023-02-28T09:14:23;4.20;99.90
65692;DHT22;52411;52.716;6.696;2023-02-28T09:16:49;4.20;99.90
65692;DHT22;52411;52.716;6.696;2023-02-28T09:19:15;4.20;99.90
65692;DHT22;52411;52.716;6.696;2023-02-28T09:21:40;4.20;99.90
65692;DHT22;52411;52.716;6.696;2023-02-28T09:24:06;4.30;99.90
65692;DHT22;52411;52.716;6.696;2023-02-28T09:26:32;4.30;99.90
65692;DHT22;52411;52.716;6.696;2023-02-28T09:28:59;4.30;99.90
65692;DHT22;52411;52.716;6.696;2023-02-28T09:31:27;4.30;99.90
65692;DHT22;52411;52.716;6.696;2023-02-28T09:33:55;4.40;99.90
65692;DHT22;52411;52.716;6.696;2023-02-28T09:36:22;4.40;99.90
65692;DHT22;52411;52.716;6.696;2023-02-28T09:38:49;4.40;99.90
65692;DHT22;52411;52.716;6.696;2023-02-28T09:41:23;4.40;99.90
65692;DHT22;52411;52.716;6.696;2023-02-28T09:43:57;4.40;99.90
65692;DHT22;52411;52.716;6.696;2023-02-28T09:46:34;4.50;99.90
65692;DHT22;52411;52.716;6.696;2023-02-28T09:49:05;4.60;99.90
65692;DHT22;52411;52.716;6.696;2023-02-28T09:51:57;4.60;99.90
65692;DHT22;52411;52.716;6.696;2023-02-28T09:54:27;4.60;99.90
65692;DHT22;52411;52.716;6.696;2023-02-28T10:04:56;4.80;99.90
65692;DHT22;52411;52.716;6.696;2023-02-28T10:09:53;4.80;99.90
65692;DHT22;52411;52.716;6.696;2023-02-28T10:12:20;4.70;99.90
65692;DHT22;52411;52.716;6.696;2023-02-28T10:14:49;4.80;99.90
65692;DHT22;52411;52.716;6.696;2023-02-28T10:17:21;4.80;99.90
65692;DHT22;52411;52.716;6.696;2023-02-28T10:23:24;5.00;99.90
65692;DHT22;52411;52.716;6.696;2023-02-28T10:25:22;5.00;99.90
65692;DHT22;52411;52.716;6.696;2023-02-28T10:27:49;5.10;99.90
65692;DHT22;52411;52.716;6.696;2023-02-28T10:30:15;5.10;99.90
65692;DHT22;52411;52.716;6.696;2023-02-28T10:32:46;5.20;99.90
65692;DHT22;52411;52.716;6.696;2023-02-28T10:35:20;5.20;99.90
65692;DHT22;52411;52.716;6.696;2023-02-28T10:37:48;5.20;99.90
65692;DHT22;52411;52.716;6.696;2023-02-28T10:42:55;5.30;99.90
65692;DHT22;52411;52.716;6.696;2023-02-28T10:45:21;5.30;99.90
65692;DHT22;52411;52.716;6.696;2023-02-28T10:47:57;5.30;99.90
65692;DHT22;52411;52.716;6.696;2023-02-28T10:59:05;5.30;99.90
65692;DHT22;52411;52.716;6.696;2023-02-28T11:01:47;5.30;99.00
65692;DHT22;52411;52.716;6.696;2023-02-28T11:06:59;5.40;99.90
65692;DHT22;52411;52.716;6.696;2023-02-28T11:11:57;5.40;99.90
65692;DHT22;52411;52.716;6.696;2023-02-28T11:14:26;5.50;99.90
65692;DHT22;52411;52.716;6.696;2023-02-28T11:16:53;5.60;99.90
65692;DHT22;52411;52.716;6.696;2023-02-28T11:19:29;5.70;99.90
65692;DHT22;52411;52.716;6.696;2023-02-28T11:22:00;5.80;99.90
65692;DHT22;52411;52.716;6.696;2023-02-28T11:26:57;5.80;99.90
65692;DHT22;52411;52.716;6.696;2023-02-28T11:29:28;5.90;99.90
65692;DHT22;52411;52.716;6.696;2023-02-28T11:32:19;6.00;99.90
65692;DHT22;52411;52.716;6.696;2023-02-28T11:34:47;6.10;99.90
65692;DHT22;52411;52.716;6.696;2023-02-28T11:37:25;6.20;99.90
65692;DHT22;52411;52.716;6.696;2023-02-28T11:39:52;6.20;99.90
65692;DHT22;52411;52.716;6.696;2023-02-28T11:53:17;6.60;99.90
65692;DHT22;52411;52.716;6.696;2023-02-28T12:06:50;6.60;98.00
65692;DHT22;52411;52.716;6.696;2023-02-28T12:09:49;6.60;97.60
65692;DHT22;52411;52.716;6.696;2023-02-28T12:20:49;6.60;99.30
65692;DHT22;52411;52.716;6.696;2023-02-28T12:26:39;6.90;98.50
65692;DHT22;52411;52.716;6.696;2023-02-28T12:32:15;7.10;98.20
65692;DHT22;52411;52.716;6.696;2023-02-28T12:34:46;7.00;98.30
65692;DHT22;52411;52.716;6.696;2023-02-28T12:37:25;7.20;99.20
65692;DHT22;52411;52.716;6.696;2023-02-28T12:39:56;7.20;94.20
65692;DHT22;52411;52.716;6.696;2023-02-28T12:42:34;7.20;97.50
65692;DHT22;52411;52.716;6.696;2023-02-28T12:45:08;7.30;95.30
65692;DHT22;52411;52.716;6.696;2023-02-28T12:47:38;7.20;98.40
65692;DHT22;52411;52.716;6.696;2023-02-28T12:50:08;7.30;99.80
65692;DHT22;52411;52.716;6.696;2023-02-28T12:55:39;7.30;97.00
65692;DHT22;52411;52.716;6.696;2023-02-28T13:00:38;7.40;96.50
65692;DHT22;52411;52.716;6.696;2023-02-28T13:08:41;7.30;97.40
65692;DHT22;52411;52.716;6.696;2023-02-28T13:14:06;7.30;95.70
65692;DHT22;52411;52.716;6.696;2023-02-28T13:19:25;7.40;97.90
65692;DHT22;52411;52.716;6.696;2023-02-28T13:21:52;7.40;99.60
65692;DHT22;52411;52.716;6.696;2023-02-28T13:29:43;7.40;99.40
65692;DHT22;52411;52.716;6.696;2023-02-28T13:47:39;7.40;95.70
65692;DHT22;52411;52.716;6.696;2023-02-28T13:50:27;7.40;94.90
65692;DHT22;52411;52.716;6.696;2023-02-28T13:56:21;7.30;97.70
65692;DHT22;52411;52.716;6.696;2023-02-28T14:04:14;7.30;98.30
65692;DHT22;52411;52.716;6.696;2023-02-28T14:06:54;7.30;98.50
65692;DHT22;52411;52.716;6.696;2023-02-28T14:09:33;7.30;95.90
65692;DHT22;52411;52.716;6.696;2023-02-28T14:15:23;7.20;98.10
65692;DHT22;52411;52.716;6.696;2023-02-28T14:17:54;7.20;99.70
65692;DHT22;52411;52.716;6.696;2023-02-28T14:20:22;7.20;98.10
65692;DHT22;52411;52.716;6.696;2023-02-28T14:23:12;7.30;98.90
65692;DHT22;52411;52.716;6.696;2023-02-28T14:28:43;7.40;98.30
65692;DHT22;52411;52.716;6.696;2023-02-28T14:31:20;7.40;96.30
65692;DHT22;52411;52.716;6.696;2023-02-28T14:36:41;7.40;97.30
65692;DHT22;52411;52.716;6.696;2023-02-28T14:39:22;7.40;99.00
65692;DHT22;52411;52.716;6.696;2023-02-28T14:41:48;7.50;95.70
65692;DHT22;52411;52.716;6.696;2023-02-28T14:44:19;7.60;98.00
65692;DHT22;52411;52.716;6.696;2023-02-28T14:46:48;7.60;98.30
65692;DHT22;52411;52.716;6.696;2023-02-28T14:49:21;7.70;96.40
65692;DHT22;52411;52.716;6.696;2023-02-28T14:51:50;7.80;98.40
65692;DHT22;52411;52.716;6.696;2023-02-28T14:54:27;7.90;98.50
65692;DHT22;52411;52.716;6.696;2023-02-28T14:56:52;7.90;94.60
65692;DHT22;52411;52.716;6.696;2023-02-28T14:59:24;7.70;97.40
65692;DHT22;52411;52.716;6.696;2023-02-28T15:01:50;7.60;97.60
65692;DHT22;52411;52.716;6.696;2023-02-28T15:04:26;7.60;97.80
65692;DHT22;52411;52.716;6.696;2023-02-28T15:07:14;7.60;94.20
65692;DHT22;52411;52.716;6.696;2023-02-28T15:09:41;7.60;94.80
65692;DHT22;52411;52.716;6.696;2023-02-28T15:12:07;7.60;94.10
65692;DHT22;52411;52.716;6.696;2023-02-28T15:14:34;7.60;93.30
65692;DHT22;52411;52.716;6.696;2023-02-28T15:17:08;7.60;88.60
65692;DHT22;52411;52.716;6.696;2023-02-28T15:19:36;7.70;94.00
65692;DHT22;52411;52.716;6.696;2023-02-28T15:22:08;7.60;94.70
65692;DHT22;52411;52.716;6.696;2023-02-28T15:24:46;7.60;94.70
65692;DHT22;52411;52.716;6.696;2023-02-28T15:27:19;7.60;94.00
65692;DHT22;52411;52.716;6.696;2023-02-28T15:29:54;7.70;95.70
65692;DHT22;52411;52.716;6.696;2023-02-28T15:32:31;7.80;97.60
65692;DHT22;52411;52.716;6.696;2023-02-28T15:34:59;8.00;94.80
65692;DHT22;52411;52.716;6.696;2023-02-28T15:37:40;8.10;97.00
65692;DHT22;52411;52.716;6.696;2023-02-28T15:40:35;8.20;95.50
65692;DHT22;52411;52.716;6.696;2023-02-28T15:48:02;8.50;95.80
65692;DHT22;52411;52.716;6.696;2023-02-28T15:50:29;8.50;96.10
65692;DHT22;52411;52.716;6.696;2023-02-28T15:52:55;8.30;96.40
65692;DHT22;52411;52.716;6.696;2023-02-28T15:55:23;8.20;97.70
65692;DHT22;52411;52.716;6.696;2023-02-28T15:57:55;8.10;95.20
65692;DHT22;52411;52.716;6.696;2023-02-28T16:00:26;8.20;95.80
65692;DHT22;52411;52.716;6.696;2023-02-28T16:02:52;8.20;97.40
65692;DHT22;52411;52.716;6.696;2023-02-28T16:07:46;8.20;97.40
65692;DHT22;52411;52.716;6.696;2023-02-28T16:10:13;8.10;96.50
65692;DHT22;52411;52.716;6.696;2023-02-28T16:12:42;8.10;97.80
65692;DHT22;52411;52.716;6.696;2023-02-28T16:17:40;8.00;95.80
65692;DHT22;52411;52.716;6.696;2023-02-28T16:20:16;8.20;97.00
65692;DHT22;52411;52.716;6.696;2023-02-28T16:22:42;8.40;96.20
65692;DHT22;52411;52.716;6.696;2023-02-28T16:25:14;8.70;96.20
65692;DHT22;52411;52.716;6.696;2023-02-28T16:27:41;9.00;94.50
65692;DHT22;52411;52.716;6.696;2023-02-28T16:30:17;9.10;96.40
65692;DHT22;52411;52.716;6.696;2023-02-28T16:32:44;9.50;94.20
65692;DHT22;52411;52.716;6.696;2023-02-28T16:35:11;9.80;95.00
65692;DHT22;52411;52.716;6.696;2023-02-28T16:37:37;9.90;95.60
65692;DHT22;52411;52.716;6.696;2023-02-28T16:40:03;10.00;95.40
65692;DHT22;52411;52.716;6.696;2023-02-28T16:42:29;9.90;96.30
65692;DHT22;52411;52.716;6.696;2023-02-28T16:44:56;9.90;95.70
65692;DHT22;52411;52.716;6.696;2023-02-28T16:47:22;9.90;96.30
65692;DHT22;52411;52.716;6.696;2023-02-28T16:49:47;9.60;95.90
65692;DHT22;52411;52.716;6.696;2023-02-28T16:52:14;9.50;96.80
65692;DHT22;52411;52.716;6.696;2023-02-28T16:54:41;9.20;96.20
65692;DHT22;52411;52.716;6.696;2023-02-28T16:57:17;8.90;96.40
65692;DHT22;52411;52.716;6.696;2023-02-28T16:59:43;8.70;94.90
65692;DHT22;52411;52.716;6.696;2023-02-28T17:02:14;8.20;97.90
65692;DHT22;52411;52.716;6.696;2023-02-28T17:04:40;7.70;98.10
65692;DHT22;52411;52.716;6.696;2023-02-28T17:07:11;7.20;98.50
65692;DHT22;52411;52.716;6.696;2023-02-28T17:09:37;6.70;98.70
65692;DHT22;52411;52.716;6.696;2023-02-28T17:12:03;6.10;99.90
65692;DHT22;52411;52.716;6.696;2023-02-28T17:14:29;5.60;99.90
65692;DHT22;52411;52.716;6.696;2023-02-28T17:16:54;5.20;99.90
65692;DHT22;52411;52.716;6.696;2023-02-28T17:19:20;4.80;99.90
65692;DHT22;52411;52.716;6.696;2023-02-28T17:21:46;4.60;99.90
65692;DHT22;52411;52.716;6.696;2023-02-28T17:24:12;4.30;99.90
65692;DHT22;52411;52.716;6.696;2023-02-28T17:26:40;4.20;99.90
65692;DHT22;52411;52.716;6.696;2023-02-28T17:29:13;4.10;99.90
65692;DHT22;52411;52.716;6.696;2023-02-28T17:31:39;4.10;99.90
65692;DHT22;52411;52.716;6.696;2023-02-28T17:34:05;4.00;99.90
65692;DHT22;52411;52.716;6.696;2023-02-28T17:36:31;3.80;99.90
65692;DHT22;52411;52.716;6.696;2023-02-28T17:38:59;3.60;99.90
65692;DHT22;52411;52.716;6.696;2023-02-28T17:41:27;3.40;99.90
65692;DHT22;52411;52.716;6.696;2023-02-28T17:43:55;3.30;99.90
65692;DHT22;52411;52.716;6.696;2023-02-28T17:46:23;3.20;99.90
65692;DHT22;52411;52.716;6.696;2023-02-28T17:48:52;3.20;99.90
65692;DHT22;52411;52.716;6.696;2023-02-28T17:51:20;3.20;99.90
65692;DHT22;52411;52.716;6.696;2023-02-28T17:53:46;3.20;99.90
65692;DHT22;52411;52.716;6.696;2023-02-28T17:56:15;3.10;99.90
65692;DHT22;52411;52.716;6.696;2023-02-28T17:58:41;3.10;99.90
65692;DHT22;52411;52.716;6.696;2023-02-28T18:01:07;3.00;99.90
65692;DHT22;52411;52.716;6.696;2023-02-28T18:03:33;3.00;99.90
65692;DHT22;52411;52.716;6.696;2023-02-28T18:05:59;2.90;99.90
65692;DHT22;52411;52.716;6.696;2023-02-28T18:08:25;2.90;99.90
65692;DHT22;52411;52.716;6.696;2023-02-28T18:10:52;2.80;99.90
65692;DHT22;52411;52.716;6.696;2023-02-28T18:13:18;2.90;99.90
65692;DHT22;52411;52.716;6.696;2023-02-28T18:15:43;2.80;99.90
65692;DHT22;52411;52.716;6.696;2023-02-28T18:18:09;2.80;99.90
65692;DHT22;52411;52.716;6.696;2023-02-28T18:20:34;2.70;99.90
65692;DHT22;52411;52.716;6.696;2023-02-28T18:23:01;2.70;99.90
65692;DHT22;52411;52.716;6.696;2023-02-28T18:25:27;2.60;99.90
65692;DHT22;52411;52.716;6.696;2023-02-28T18:27:52;2.50;99.90
65692;DHT22;52411;52.716;6.696;2023-02-28T18:30:27;2.40;99.90
65692;DHT22;52411;52.716;6.696;2023-02-28T18:32:57;2.40;99.90
65692;DHT22;52411;52.716;6.696;2023-02-28T18:35:23;2.40;99.90
65692;DHT22;52411;52.716;6.696;2023-02-28T18:38:04;2.40;99.90
65692;DHT22;52411;52.716;6.696;2023-02-28T18:40:30;2.40;99.90
65692;DHT22;52411;52.716;6.696;2023-02-28T18:42:56;2.30;99.90
65692;DHT22;52411;52.716;6.696;2023-02-28T18:45:22;2.30;99.90
65692;DHT22;52411;52.716;6.696;2023-02-28T18:47:47;2.20;99.90